sensor_id;sensor_type;location;lat;lon;timestamp;P1;durP1;ratioP1;P2;durP2;ratioP2
8594;SDS011;4335;48.860;9.198;2022-12-11T00:00:20;25.03;;;16.67;;
8594;SDS011;4335;48.860;9.198;2022-12-11T00:02:47;21.77;;;16.53;;
8594;SDS011;4335;48.860;9.198;2022-12-11T00:05:17;24.53;;;15.83;;
8594;SDS011;4335;48.860;9.198;2022-12-11T00:07:44;21.43;;;15.27;;
8594;SDS011;4335;48.860;9.198;2022-12-11T00:10:11;22.93;;;16.20;;
8594;SDS011;4335;48.860;9.198;2022-12-11T00:12:37;24.80;;;15.57;;
8594;SDS011;4335;48.860;9.198;2022-12-11T00:15:05;22.57;;;15.93;;
8594;SDS011;4335;48.860;9.198;2022-12-11T00:17:39;24.93;;;15.97;;
8594;SDS011;4335;48.860;9.198;2022-12-11T00:20:09;22.63;;;15.67;;
8594;SDS011;4335;48.860;9.198;2022-12-11T00:22:36;25.40;;;16.13;;
8594;SDS011;4335;48.860;9.198;2022-12-11T00:25:03;26.37;;;17.73;;
8594;SDS011;4335;48.860;9.198;2022-12-11T00:27:30;24.50;;;16.13;;
8594;SDS011;4335;48.860;9.198;2022-12-11T00:29:57;21.07;;;14.80;;
8594;SDS011;4335;48.860;9.198;2022-12-11T00:32:24;23.60;;;15.70;;
8594;SDS011;4335;48.860;9.198;2022-12-11T00:34:51;23.03;;;15.00;;
8594;SDS011;4335;48.860;9.198;2022-12-11T00:37:18;22.53;;;14.67;;
8594;SDS011;4335;48.860;9.198;2022-12-11T00:39:45;20.60;;;15.40;;
8594;SDS011;4335;48.860;9.198;2022-12-11T00:42:12;22.07;;;14.73;;
8594;SDS011;4335;48.860;9.198;2022-12-11T00:44:38;22.40;;;14.43;;
8594;SDS011;4335;48.860;9.198;2022-12-11T00:47:16;20.90;;;14.83;;
8594;SDS011;4335;48.860;9.198;2022-12-11T00:49:42;23.13;;;14.93;;
8594;SDS011;4335;48.860;9.198;2022-12-11T00:52:10;23.10;;;14.93;;
8594;SDS011;4335;48.860;9.198;2022-12-11T00:54:39;25.57;;;15.93;;
8594;SDS011;4335;48.860;9.198;2022-12-11T00:57:06;20.97;;;14.83;;
8594;SDS011;4335;48.860;9.198;2022-12-11T00:59:32;24.57;;;15.67;;
8594;SDS011;4335;48.860;9.198;2022-12-11T01:01:59;23.60;;;15.30;;
8594;SDS011;4335;48.860;9.198;2022-12-11T01:04:29;26.97;;;15.73;;
8594;SDS011;4335;48.860;9.198;2022-12-11T01:06:58;24.60;;;16.10;;
8594;SDS011;4335;48.860;9.198;2022-12-11T01:09:26;21.97;;;14.83;;
8594;SDS011;4335;48.860;9.198;2022-12-11T01:12:10;20.67;;;14.17;;
8594;SDS011;4335;48.860;9.198;2022-12-11T01:14:40;21.07;;;14.77;;
8594;SDS011;4335;48.860;9.198;2022-12-11T01:17:09;20.37;;;14.37;;
8594;SDS011;4335;48.860;9.198;2022-12-11T01:19:39;21.40;;;14.63;;
8594;SDS011;4335;48.860;9.198;2022-12-11T01:22:05;23.83;;;15.07;;
8594;SDS011;4335;48.860;9.198;2022-12-11T01:24:39;21.47;;;15.03;;
8594;SDS011;4335;48.860;9.198;2022-12-11T01:27:06;22.43;;;14.60;;
8594;SDS011;4335;48.860;9.198;2022-12-11T01:29:35;21.17;;;15.00;;
8594;SDS011;4335;48.860;9.198;2022-12-11T01:32:05;18.70;;;14.53;;
8594;SDS011;4335;48.860;9.198;2022-12-11T01:34:32;21.70;;;13.23;;
8594;SDS011;4335;48.860;9.198;2022-12-11T01:36:59;20.47;;;14.13;;
8594;SDS011;4335;48.860;9.198;2022-12-11T01:39:25;18.37;;;12.97;;
8594;SDS011;4335;48.860;9.198;2022-12-11T01:41:56;21.30;;;15.20;;
8594;SDS011;4335;48.860;9.198;2022-12-11T01:47:42;20.93;;;13.83;;
8594;SDS011;4335;48.860;9.198;2022-12-11T01:50:11;17.73;;;13.50;;
8594;SDS011;4335;48.860;9.198;2022-12-11T01:52:38;19.23;;;13.47;;
8594;SDS011;4335;48.860;9.198;2022-12-11T01:55:06;18.77;;;13.57;;
8594;SDS011;4335;48.860;9.198;2022-12-11T01:57:34;21.40;;;14.67;;
8594;SDS011;4335;48.860;9.198;2022-12-11T02:00:02;21.47;;;14.13;;
8594;SDS011;4335;48.860;9.198;2022-12-11T02:02:30;21.10;;;13.87;;
8594;SDS011;4335;48.860;9.198;2022-12-11T02:04:58;19.93;;;13.67;;
8594;SDS011;4335;48.860;9.198;2022-12-11T02:07:29;21.43;;;15.10;;
8594;SDS011;4335;48.860;9.198;2022-12-11T02:10:02;21.07;;;14.60;;
8594;SDS011;4335;48.860;9.198;2022-12-11T02:12:35;23.80;;;15.13;;
8594;SDS011;4335;48.860;9.198;2022-12-11T02:15:08;19.87;;;14.23;;
8594;SDS011;4335;48.860;9.198;2022-12-11T02:17:50;23.23;;;14.90;;
8594;SDS011;4335;48.860;9.198;2022-12-11T02:20:24;23.07;;;15.50;;
8594;SDS011;4335;48.860;9.198;2022-12-11T02:23:10;20.97;;;14.10;;
8594;SDS011;4335;48.860;9.198;2022-12-11T02:25:52;21.07;;;13.50;;
8594;SDS011;4335;48.860;9.198;2022-12-11T02:28:29;18.53;;;13.60;;
8594;SDS011;4335;48.860;9.198;2022-12-11T02:31:00;21.60;;;14.73;;
8594;SDS011;4335;48.860;9.198;2022-12-11T02:33:35;19.53;;;13.67;;
8594;SDS011;4335;48.860;9.198;2022-12-11T02:36:06;20.23;;;14.47;;
8594;SDS011;4335;48.860;9.198;2022-12-11T02:38:35;22.07;;;13.03;;
8594;SDS011;4335;48.860;9.198;2022-12-11T02:41:06;20.63;;;14.23;;
8594;SDS011;4335;48.860;9.198;2022-12-11T02:43:35;22.13;;;14.83;;
8594;SDS011;4335;48.860;9.198;2022-12-11T02:46:03;21.43;;;15.50;;
8594;SDS011;4335;48.860;9.198;2022-12-11T02:48:35;20.60;;;13.93;;
8594;SDS011;4335;48.860;9.198;2022-12-11T02:51:02;20.50;;;14.43;;
8594;SDS011;4335;48.860;9.198;2022-12-11T02:53:35;19.63;;;13.47;;
8594;SDS011;4335;48.860;9.198;2022-12-11T02:56:07;20.17;;;13.63;;
8594;SDS011;4335;48.860;9.198;2022-12-11T02:58:37;18.23;;;12.90;;
8594;SDS011;4335;48.860;9.198;2022-12-11T03:01:10;18.33;;;13.10;;
8594;SDS011;4335;48.860;9.198;2022-12-11T03:03:37;19.50;;;13.47;;
8594;SDS011;4335;48.860;9.198;2022-12-11T03:06:04;23.87;;;14.63;;
8594;SDS011;4335;48.860;9.198;2022-12-11T03:08:39;17.00;;;12.47;;
8594;SDS011;4335;48.860;9.198;2022-12-11T03:11:10;18.73;;;13.20;;
8594;SDS011;4335;48.860;9.198;2022-12-11T03:13:38;17.10;;;12.47;;
8594;SDS011;4335;48.860;9.198;2022-12-11T03:16:08;18.53;;;12.67;;
8594;SDS011;4335;48.860;9.198;2022-12-11T03:18:41;17.17;;;13.23;;
8594;SDS011;4335;48.860;9.198;2022-12-11T03:21:16;18.83;;;13.60;;
8594;SDS011;4335;48.860;9.198;2022-12-11T03:23:49;19.70;;;13.17;;
8594;SDS011;4335;48.860;9.198;2022-12-11T03:26:21;18.33;;;12.83;;
8594;SDS011;4335;48.860;9.198;2022-12-11T03:28:53;17.10;;;12.73;;
8594;SDS011;4335;48.860;9.198;2022-12-11T03:31:26;19.93;;;13.00;;
8594;SDS011;4335;48.860;9.198;2022-12-11T03:33:59;20.33;;;13.07;;
8594;SDS011;4335;48.860;9.198;2022-12-11T03:36:30;21.37;;;13.67;;
8594;SDS011;4335;48.860;9.198;2022-12-11T03:39:04;16.93;;;13.07;;
8594;SDS011;4335;48.860;9.198;2022-12-11T03:41:34;21.30;;;13.50;;
8594;SDS011;4335;48.860;9.198;2022-12-11T03:44:04;17.20;;;12.07;;
8594;SDS011;4335;48.860;9.198;2022-12-11T03:46:37;15.50;;;12.70;;
8594;SDS011;4335;48.860;9.198;2022-12-11T03:49:06;18.57;;;13.10;;
8594;SDS011;4335;48.860;9.198;2022-12-11T03:51:38;17.90;;;13.47;;
8594;SDS011;4335;48.860;9.198;2022-12-11T03:54:07;20.97;;;13.37;;
8594;SDS011;4335;48.860;9.198;2022-12-11T03:56:35;18.60;;;13.37;;
8594;SDS011;4335;48.860;9.198;2022-12-11T03:59:05;17.73;;;12.77;;
8594;SDS011;4335;48.860;9.198;2022-12-11T04:01:32;18.20;;;12.93;;
8594;SDS011;4335;48.860;9.198;2022-12-11T04:04:09;18.43;;;12.90;;
8594;SDS011;4335;48.860;9.198;2022-12-11T04:06:38;18.30;;;13.30;;
8594;SDS011;4335;48.860;9.198;2022-12-11T04:09:05;18.53;;;13.80;;
8594;SDS011;4335;48.860;9.198;2022-12-11T04:11:32;21.27;;;13.77;;
8594;SDS011;4335;48.860;9.198;2022-12-11T04:13:59;20.03;;;13.53;;
8594;SDS011;4335;48.860;9.198;2022-12-11T04:16:50;21.17;;;13.43;;
8594;SDS011;4335;48.860;9.198;2022-12-11T04:19:18;17.87;;;12.87;;
8594;SDS011;4335;48.860;9.198;2022-12-11T04:22:03;17.57;;;12.60;;
8594;SDS011;4335;48.860;9.198;2022-12-11T04:24:48;19.07;;;13.47;;
8594;SDS011;4335;48.860;9.198;2022-12-11T04:27:15;21.27;;;13.47;;
8594;SDS011;4335;48.860;9.198;2022-12-11T04:30:03;19.20;;;13.23;;
8594;SDS011;4335;48.860;9.198;2022-12-11T04:32:35;17.77;;;13.50;;
8594;SDS011;4335;48.860;9.198;2022-12-11T04:35:01;19.43;;;14.50;;
8594;SDS011;4335;48.860;9.198;2022-12-11T04:37:35;18.00;;;13.03;;
8594;SDS011;4335;48.860;9.198;2022-12-11T04:40:02;18.50;;;13.67;;
8594;SDS011;4335;48.860;9.198;2022-12-11T04:42:30;18.67;;;14.17;;
8594;SDS011;4335;48.860;9.198;2022-12-11T04:44:57;19.23;;;14.20;;
8594;SDS011;4335;48.860;9.198;2022-12-11T04:47:23;20.37;;;15.10;;
8594;SDS011;4335;48.860;9.198;2022-12-11T04:49:51;20.30;;;13.27;;
8594;SDS011;4335;48.860;9.198;2022-12-11T04:52:18;21.27;;;14.93;;
8594;SDS011;4335;48.860;9.198;2022-12-11T04:54:45;20.63;;;14.60;;
8594;SDS011;4335;48.860;9.198;2022-12-11T04:57:11;19.63;;;13.77;;
8594;SDS011;4335;48.860;9.198;2022-12-11T04:59:41;19.33;;;13.73;;
8594;SDS011;4335;48.860;9.198;2022-12-11T05:02:14;18.50;;;13.23;;
8594;SDS011;4335;48.860;9.198;2022-12-11T05:04:47;18.87;;;13.70;;
8594;SDS011;4335;48.860;9.198;2022-12-11T05:07:15;18.80;;;13.67;;
8594;SDS011;4335;48.860;9.198;2022-12-11T05:09:41;18.17;;;12.80;;
8594;SDS011;4335;48.860;9.198;2022-12-11T05:12:08;19.27;;;13.90;;
8594;SDS011;4335;48.860;9.198;2022-12-11T05:14:38;19.40;;;13.47;;
8594;SDS011;4335;48.860;9.198;2022-12-11T05:17:08;19.27;;;13.40;;
8594;SDS011;4335;48.860;9.198;2022-12-11T05:19:42;16.87;;;13.80;;
8594;SDS011;4335;48.860;9.198;2022-12-11T05:22:24;20.70;;;13.57;;
8594;SDS011;4335;48.860;9.198;2022-12-11T05:24:51;20.50;;;14.07;;
8594;SDS011;4335;48.860;9.198;2022-12-11T05:27:18;19.83;;;13.87;;
8594;SDS011;4335;48.860;9.198;2022-12-11T05:29:45;19.33;;;14.77;;
8594;SDS011;4335;48.860;9.198;2022-12-11T05:32:11;19.40;;;14.47;;
8594;SDS011;4335;48.860;9.198;2022-12-11T05:34:41;20.03;;;14.00;;
8594;SDS011;4335;48.860;9.198;2022-12-11T05:37:10;22.17;;;13.67;;
8594;SDS011;4335;48.860;9.198;2022-12-11T05:39:45;21.27;;;14.30;;
8594;SDS011;4335;48.860;9.198;2022-12-11T05:42:14;21.80;;;14.13;;
8594;SDS011;4335;48.860;9.198;2022-12-11T05:44:41;21.27;;;15.60;;
8594;SDS011;4335;48.860;9.198;2022-12-11T05:47:10;20.67;;;14.30;;
8594;SDS011;4335;48.860;9.198;2022-12-11T05:49:40;22.07;;;14.60;;
8594;SDS011;4335;48.860;9.198;2022-12-11T05:52:07;21.13;;;15.17;;
8594;SDS011;4335;48.860;9.198;2022-12-11T05:54:34;22.00;;;15.53;;
8594;SDS011;4335;48.860;9.198;2022-12-11T05:57:04;21.27;;;14.47;;
8594;SDS011;4335;48.860;9.198;2022-12-11T05:59:31;23.20;;;15.47;;
8594;SDS011;4335;48.860;9.198;2022-12-11T06:01:58;25.47;;;16.63;;
8594;SDS011;4335;48.860;9.198;2022-12-11T06:04:25;25.87;;;16.10;;
8594;SDS011;4335;48.860;9.198;2022-12-11T06:06:52;21.57;;;16.07;;
8594;SDS011;4335;48.860;9.198;2022-12-11T06:09:19;27.03;;;16.83;;
8594;SDS011;4335;48.860;9.198;2022-12-11T06:11:52;21.60;;;15.30;;
8594;SDS011;4335;48.860;9.198;2022-12-11T06:14:19;24.10;;;16.07;;
8594;SDS011;4335;48.860;9.198;2022-12-11T06:16:46;27.83;;;15.87;;
8594;SDS011;4335;48.860;9.198;2022-12-11T06:19:14;22.60;;;16.07;;
8594;SDS011;4335;48.860;9.198;2022-12-11T06:21:42;22.50;;;15.47;;
8594;SDS011;4335;48.860;9.198;2022-12-11T06:24:10;23.33;;;16.67;;
8594;SDS011;4335;48.860;9.198;2022-12-11T06:26:37;24.60;;;16.40;;
8594;SDS011;4335;48.860;9.198;2022-12-11T06:29:04;23.67;;;15.83;;
8594;SDS011;4335;48.860;9.198;2022-12-11T06:31:31;21.13;;;14.77;;
8594;SDS011;4335;48.860;9.198;2022-12-11T06:33:58;22.20;;;15.80;;
8594;SDS011;4335;48.860;9.198;2022-12-11T06:36:29;24.43;;;15.83;;
8594;SDS011;4335;48.860;9.198;2022-12-11T06:38:56;26.33;;;16.00;;
8594;SDS011;4335;48.860;9.198;2022-12-11T06:41:23;29.67;;;18.03;;
8594;SDS011;4335;48.860;9.198;2022-12-11T06:43:50;26.63;;;16.80;;
8594;SDS011;4335;48.860;9.198;2022-12-11T06:46:17;22.70;;;15.30;;
8594;SDS011;4335;48.860;9.198;2022-12-11T06:48:45;25.10;;;15.53;;
8594;SDS011;4335;48.860;9.198;2022-12-11T06:51:13;22.37;;;15.23;;
8594;SDS011;4335;48.860;9.198;2022-12-11T06:53:42;26.00;;;17.50;;
8594;SDS011;4335;48.860;9.198;2022-12-11T06:56:10;22.33;;;15.37;;
8594;SDS011;4335;48.860;9.198;2022-12-11T06:58:37;23.53;;;15.97;;
8594;SDS011;4335;48.860;9.198;2022-12-11T07:01:12;23.27;;;15.57;;
8594;SDS011;4335;48.860;9.198;2022-12-11T07:03:40;20.07;;;13.80;;
8594;SDS011;4335;48.860;9.198;2022-12-11T07:06:08;21.70;;;14.90;;
8594;SDS011;4335;48.860;9.198;2022-12-11T07:08:38;23.17;;;15.17;;
8594;SDS011;4335;48.860;9.198;2022-12-11T07:11:08;21.43;;;15.13;;
8594;SDS011;4335;48.860;9.198;2022-12-11T07:13:37;23.60;;;15.90;;
8594;SDS011;4335;48.860;9.198;2022-12-11T07:16:06;23.87;;;16.20;;
8594;SDS011;4335;48.860;9.198;2022-12-11T07:18:37;23.00;;;14.97;;
8594;SDS011;4335;48.860;9.198;2022-12-11T07:21:05;20.07;;;14.30;;
8594;SDS011;4335;48.860;9.198;2022-12-11T07:23:34;24.23;;;16.47;;
8594;SDS011;4335;48.860;9.198;2022-12-11T07:26:03;22.77;;;16.03;;
8594;SDS011;4335;48.860;9.198;2022-12-11T07:28:30;22.53;;;15.40;;
8594;SDS011;4335;48.860;9.198;2022-12-11T07:31:03;20.83;;;15.40;;
8594;SDS011;4335;48.860;9.198;2022-12-11T07:33:31;19.03;;;14.40;;
8594;SDS011;4335;48.860;9.198;2022-12-11T07:35:59;21.37;;;15.07;;
8594;SDS011;4335;48.860;9.198;2022-12-11T07:38:27;23.90;;;16.43;;
8594;SDS011;4335;48.860;9.198;2022-12-11T07:40:55;23.23;;;15.63;;
8594;SDS011;4335;48.860;9.198;2022-12-11T07:43:27;24.20;;;15.60;;
8594;SDS011;4335;48.860;9.198;2022-12-11T07:45:54;22.77;;;14.43;;
8594;SDS011;4335;48.860;9.198;2022-12-11T07:48:25;22.30;;;14.43;;
8594;SDS011;4335;48.860;9.198;2022-12-11T07:50:54;23.20;;;14.00;;
8594;SDS011;4335;48.860;9.198;2022-12-11T07:53:21;20.70;;;14.27;;
8594;SDS011;4335;48.860;9.198;2022-12-11T07:55:48;20.63;;;14.17;;
8594;SDS011;4335;48.860;9.198;2022-12-11T07:58:21;22.17;;;14.67;;
8594;SDS011;4335;48.860;9.198;2022-12-11T08:00:48;20.00;;;14.30;;
8594;SDS011;4335;48.860;9.198;2022-12-11T08:03:16;22.60;;;15.00;;
8594;SDS011;4335;48.860;9.198;2022-12-11T08:05:45;26.90;;;16.03;;
8594;SDS011;4335;48.860;9.198;2022-12-11T08:08:13;25.30;;;16.53;;
8594;SDS011;4335;48.860;9.198;2022-12-11T08:10:40;27.33;;;17.50;;
8594;SDS011;4335;48.860;9.198;2022-12-11T08:13:14;24.47;;;16.07;;
8594;SDS011;4335;48.860;9.198;2022-12-11T08:15:41;28.10;;;18.10;;
8594;SDS011;4335;48.860;9.198;2022-12-11T08:18:14;25.20;;;16.80;;
8594;SDS011;4335;48.860;9.198;2022-12-11T08:20:40;23.60;;;16.30;;
8594;SDS011;4335;48.860;9.198;2022-12-11T08:23:13;25.17;;;15.97;;
8594;SDS011;4335;48.860;9.198;2022-12-11T08:25:40;26.37;;;17.20;;
8594;SDS011;4335;48.860;9.198;2022-12-11T08:28:09;22.83;;;16.27;;
8594;SDS011;4335;48.860;9.198;2022-12-11T08:30:37;26.50;;;17.83;;
8594;SDS011;4335;48.860;9.198;2022-12-11T08:33:05;26.23;;;18.47;;
8594;SDS011;4335;48.860;9.198;2022-12-11T08:35:32;26.47;;;17.47;;
8594;SDS011;4335;48.860;9.198;2022-12-11T08:38:03;27.37;;;16.70;;
8594;SDS011;4335;48.860;9.198;2022-12-11T08:40:30;26.57;;;18.40;;
8594;SDS011;4335;48.860;9.198;2022-12-11T08:43:04;26.27;;;18.27;;
8594;SDS011;4335;48.860;9.198;2022-12-11T08:45:31;24.30;;;16.23;;
8594;SDS011;4335;48.860;9.198;2022-12-11T08:48:01;24.17;;;16.47;;
8594;SDS011;4335;48.860;9.198;2022-12-11T08:50:28;24.90;;;17.00;;
8594;SDS011;4335;48.860;9.198;2022-12-11T08:52:55;24.47;;;16.33;;
8594;SDS011;4335;48.860;9.198;2022-12-11T08:55:23;26.20;;;16.37;;
8594;SDS011;4335;48.860;9.198;2022-12-11T08:57:50;29.00;;;19.47;;
8594;SDS011;4335;48.860;9.198;2022-12-11T09:00:19;22.67;;;16.23;;
8594;SDS011;4335;48.860;9.198;2022-12-11T09:02:46;24.13;;;16.33;;
8594;SDS011;4335;48.860;9.198;2022-12-11T09:05:13;27.13;;;17.03;;
8594;SDS011;4335;48.860;9.198;2022-12-11T09:07:48;24.17;;;16.57;;
8594;SDS011;4335;48.860;9.198;2022-12-11T09:10:15;28.90;;;18.37;;
8594;SDS011;4335;48.860;9.198;2022-12-11T09:12:42;24.43;;;17.77;;
8594;SDS011;4335;48.860;9.198;2022-12-11T09:15:09;27.70;;;17.30;;
8594;SDS011;4335;48.860;9.198;2022-12-11T09:17:36;22.07;;;14.10;;
8594;SDS011;4335;48.860;9.198;2022-12-11T09:20:03;23.93;;;15.40;;
8594;SDS011;4335;48.860;9.198;2022-12-11T09:22:30;19.57;;;14.63;;
8594;SDS011;4335;48.860;9.198;2022-12-11T09:24:58;20.20;;;14.63;;
8594;SDS011;4335;48.860;9.198;2022-12-11T09:27:25;19.80;;;14.50;;
8594;SDS011;4335;48.860;9.198;2022-12-11T09:29:52;20.23;;;14.33;;
8594;SDS011;4335;48.860;9.198;2022-12-11T09:32:18;21.30;;;13.90;;
8594;SDS011;4335;48.860;9.198;2022-12-11T09:34:45;17.90;;;12.33;;
8594;SDS011;4335;48.860;9.198;2022-12-11T09:37:15;19.63;;;14.63;;
8594;SDS011;4335;48.860;9.198;2022-12-11T09:39:41;18.47;;;12.70;;
8594;SDS011;4335;48.860;9.198;2022-12-11T09:42:17;16.23;;;12.73;;
8594;SDS011;4335;48.860;9.198;2022-12-11T09:44:51;19.10;;;12.77;;
8594;SDS011;4335;48.860;9.198;2022-12-11T09:47:22;19.67;;;13.17;;
8594;SDS011;4335;48.860;9.198;2022-12-11T09:49:53;18.17;;;12.77;;
8594;SDS011;4335;48.860;9.198;2022-12-11T09:52:27;18.13;;;13.27;;
8594;SDS011;4335;48.860;9.198;2022-12-11T09:54:59;18.97;;;13.13;;
8594;SDS011;4335;48.860;9.198;2022-12-11T09:57:38;20.40;;;13.03;;
8594;SDS011;4335;48.860;9.198;2022-12-11T10:00:18;17.27;;;12.77;;
8594;SDS011;4335;48.860;9.198;2022-12-11T10:02:56;19.63;;;13.40;;
8594;SDS011;4335;48.860;9.198;2022-12-11T10:05:52;16.67;;;11.97;;
8594;SDS011;4335;48.860;9.198;2022-12-11T10:08:27;17.20;;;12.80;;
8594;SDS011;4335;48.860;9.198;2022-12-11T10:11:04;19.77;;;13.80;;
8594;SDS011;4335;48.860;9.198;2022-12-11T10:13:47;18.00;;;13.10;;
8594;SDS011;4335;48.860;9.198;2022-12-11T10:16:28;21.10;;;13.30;;
8594;SDS011;4335;48.860;9.198;2022-12-11T10:19:01;17.93;;;13.27;;
8594;SDS011;4335;48.860;9.198;2022-12-11T10:21:28;19.53;;;13.23;;
8594;SDS011;4335;48.860;9.198;2022-12-11T10:24:13;18.67;;;14.07;;
8594;SDS011;4335;48.860;9.198;2022-12-11T10:26:45;20.83;;;12.67;;
8594;SDS011;4335;48.860;9.198;2022-12-11T10:29:16;19.10;;;13.37;;
8594;SDS011;4335;48.860;9.198;2022-12-11T10:31:44;18.30;;;13.03;;
8594;SDS011;4335;48.860;9.198;2022-12-11T10:34:17;17.37;;;12.90;;
8594;SDS011;4335;48.860;9.198;2022-12-11T10:36:51;18.20;;;11.97;;
8594;SDS011;4335;48.860;9.198;2022-12-11T10:39:20;21.07;;;12.80;;
8594;SDS011;4335;48.860;9.198;2022-12-11T10:41:48;18.13;;;12.67;;
8594;SDS011;4335;48.860;9.198;2022-12-11T10:44:18;20.57;;;13.83;;
8594;SDS011;4335;48.860;9.198;2022-12-11T10:47:00;21.60;;;13.33;;
8594;SDS011;4335;48.860;9.198;2022-12-11T10:49:29;18.57;;;12.57;;
8594;SDS011;4335;48.860;9.198;2022-12-11T10:51:57;19.13;;;13.17;;
8594;SDS011;4335;48.860;9.198;2022-12-11T10:54:28;19.20;;;13.57;;
8594;SDS011;4335;48.860;9.198;2022-12-11T10:56:58;24.43;;;16.60;;
8594;SDS011;4335;48.860;9.198;2022-12-11T10:59:29;17.43;;;13.20;;
8594;SDS011;4335;48.860;9.198;2022-12-11T11:02:00;20.10;;;12.87;;
8594;SDS011;4335;48.860;9.198;2022-12-11T11:04:29;21.00;;;14.23;;
8594;SDS011;4335;48.860;9.198;2022-12-11T11:07:01;20.27;;;13.23;;
8594;SDS011;4335;48.860;9.198;2022-12-11T11:09:37;19.67;;;13.83;;
8594;SDS011;4335;48.860;9.198;2022-12-11T11:12:19;21.33;;;14.37;;
8594;SDS011;4335;48.860;9.198;2022-12-11T11:14:58;17.83;;;13.03;;
8594;SDS011;4335;48.860;9.198;2022-12-11T11:17:26;16.90;;;12.13;;
8594;SDS011;4335;48.860;9.198;2022-12-11T11:19:53;19.40;;;13.63;;
8594;SDS011;4335;48.860;9.198;2022-12-11T11:22:21;18.73;;;13.17;;
8594;SDS011;4335;48.860;9.198;2022-12-11T11:24:51;17.20;;;12.10;;
8594;SDS011;4335;48.860;9.198;2022-12-11T11:27:23;18.57;;;12.90;;
8594;SDS011;4335;48.860;9.198;2022-12-11T11:29:54;19.13;;;12.23;;
8594;SDS011;4335;48.860;9.198;2022-12-11T11:32:26;17.97;;;12.37;;
8594;SDS011;4335;48.860;9.198;2022-12-11T11:35:04;17.73;;;11.43;;
8594;SDS011;4335;48.860;9.198;2022-12-11T11:37:40;20.37;;;12.57;;
8594;SDS011;4335;48.860;9.198;2022-12-11T11:40:10;18.23;;;13.10;;
8594;SDS011;4335;48.860;9.198;2022-12-11T11:42:44;20.33;;;13.57;;
8594;SDS011;4335;48.860;9.198;2022-12-11T11:45:18;18.33;;;13.23;;
8594;SDS011;4335;48.860;9.198;2022-12-11T11:47:51;18.70;;;13.80;;
8594;SDS011;4335;48.860;9.198;2022-12-11T11:50:25;16.67;;;12.03;;
8594;SDS011;4335;48.860;9.198;2022-12-11T11:52:59;18.37;;;13.00;;
8594;SDS011;4335;48.860;9.198;2022-12-11T11:55:31;19.23;;;13.60;;
8594;SDS011;4335;48.860;9.198;2022-12-11T11:58:07;19.00;;;13.47;;
8594;SDS011;4335;48.860;9.198;2022-12-11T12:00:38;18.83;;;13.37;;
8594;SDS011;4335;48.860;9.198;2022-12-11T12:03:08;18.23;;;13.40;;
8594;SDS011;4335;48.860;9.198;2022-12-11T12:05:37;18.70;;;12.53;;
8594;SDS011;4335;48.860;9.198;2022-12-11T12:08:16;19.47;;;13.00;;
8594;SDS011;4335;48.860;9.198;2022-12-11T12:10:50;21.33;;;14.30;;
8594;SDS011;4335;48.860;9.198;2022-12-11T12:13:27;26.07;;;15.47;;
8594;SDS011;4335;48.860;9.198;2022-12-11T12:16:06;21.83;;;14.00;;
8594;SDS011;4335;48.860;9.198;2022-12-11T12:18:46;17.17;;;11.93;;
8594;SDS011;4335;48.860;9.198;2022-12-11T12:21:23;17.20;;;11.80;;
8594;SDS011;4335;48.860;9.198;2022-12-11T12:23:58;15.00;;;12.07;;
8594;SDS011;4335;48.860;9.198;2022-12-11T12:26:35;17.50;;;13.32;;
8594;SDS011;4335;48.860;9.198;2022-12-11T12:29:13;18.67;;;11.47;;
8594;SDS011;4335;48.860;9.198;2022-12-11T12:31:54;15.80;;;12.63;;
8594;SDS011;4335;48.860;9.198;2022-12-11T12:34:32;17.63;;;11.83;;
8594;SDS011;4335;48.860;9.198;2022-12-11T12:37:17;15.70;;;11.33;;
8594;SDS011;4335;48.860;9.198;2022-12-11T12:39:54;20.17;;;14.70;;
8594;SDS011;4335;48.860;9.198;2022-12-11T12:42:34;15.70;;;11.27;;
8594;SDS011;4335;48.860;9.198;2022-12-11T12:45:08;16.87;;;11.87;;
8594;SDS011;4335;48.860;9.198;2022-12-11T12:47:43;16.30;;;11.23;;
8594;SDS011;4335;48.860;9.198;2022-12-11T12:50:13;16.93;;;11.83;;
8594;SDS011;4335;48.860;9.198;2022-12-11T12:52:43;17.27;;;11.70;;
8594;SDS011;4335;48.860;9.198;2022-12-11T12:55:15;18.13;;;11.00;;
8594;SDS011;4335;48.860;9.198;2022-12-11T12:57:48;14.77;;;11.03;;
8594;SDS011;4335;48.860;9.198;2022-12-11T13:00:25;17.90;;;12.57;;
8594;SDS011;4335;48.860;9.198;2022-12-11T13:02:54;21.07;;;12.97;;
8594;SDS011;4335;48.860;9.198;2022-12-11T13:05:23;23.47;;;13.50;;
8594;SDS011;4335;48.860;9.198;2022-12-11T13:07:52;23.80;;;13.90;;
8594;SDS011;4335;48.860;9.198;2022-12-11T13:10:22;24.43;;;14.70;;
8594;SDS011;4335;48.860;9.198;2022-12-11T13:12:52;21.07;;;14.10;;
8594;SDS011;4335;48.860;9.198;2022-12-11T13:15:28;21.27;;;13.70;;
8594;SDS011;4335;48.860;9.198;2022-12-11T13:17:59;22.50;;;13.80;;
8594;SDS011;4335;48.860;9.198;2022-12-11T13:20:28;21.83;;;14.53;;
8594;SDS011;4335;48.860;9.198;2022-12-11T13:23:14;25.50;;;14.97;;
8594;SDS011;4335;48.860;9.198;2022-12-11T13:25:55;25.93;;;16.33;;
8594;SDS011;4335;48.860;9.198;2022-12-11T13:28:27;25.50;;;15.40;;
8594;SDS011;4335;48.860;9.198;2022-12-11T13:30:58;22.33;;;14.80;;
8594;SDS011;4335;48.860;9.198;2022-12-11T13:33:32;25.33;;;15.83;;
8594;SDS011;4335;48.860;9.198;2022-12-11T13:36:25;34.37;;;22.10;;
8594;SDS011;4335;48.860;9.198;2022-12-11T13:38:58;26.07;;;16.73;;
8594;SDS011;4335;48.860;9.198;2022-12-11T13:41:27;25.63;;;17.07;;
8594;SDS011;4335;48.860;9.198;2022-12-11T13:43:57;25.03;;;14.90;;
8594;SDS011;4335;48.860;9.198;2022-12-11T13:46:29;22.80;;;15.60;;
8594;SDS011;4335;48.860;9.198;2022-12-11T13:49:06;24.73;;;15.00;;
8594;SDS011;4335;48.860;9.198;2022-12-11T13:52:02;24.93;;;15.90;;
8594;SDS011;4335;48.860;9.198;2022-12-11T13:54:34;24.00;;;15.27;;
8594;SDS011;4335;48.860;9.198;2022-12-11T13:57:02;26.50;;;15.97;;
8594;SDS011;4335;48.860;9.198;2022-12-11T13:59:41;22.07;;;14.47;;
8594;SDS011;4335;48.860;9.198;2022-12-11T14:02:17;28.33;;;17.90;;
8594;SDS011;4335;48.860;9.198;2022-12-11T14:04:51;24.07;;;15.80;;
8594;SDS011;4335;48.860;9.198;2022-12-11T14:07:23;22.30;;;14.87;;
8594;SDS011;4335;48.860;9.198;2022-12-11T14:09:55;24.07;;;15.73;;
8594;SDS011;4335;48.860;9.198;2022-12-11T14:12:26;22.57;;;15.37;;
8594;SDS011;4335;48.860;9.198;2022-12-11T14:14:58;25.27;;;16.40;;
8594;SDS011;4335;48.860;9.198;2022-12-11T14:17:27;22.50;;;14.17;;
8594;SDS011;4335;48.860;9.198;2022-12-11T14:19:56;23.30;;;14.50;;
8594;SDS011;4335;48.860;9.198;2022-12-11T14:22:26;27.17;;;17.07;;
8594;SDS011;4335;48.860;9.198;2022-12-11T14:25:00;23.37;;;14.47;;
8594;SDS011;4335;48.860;9.198;2022-12-11T14:27:45;23.07;;;14.77;;
8594;SDS011;4335;48.860;9.198;2022-12-11T14:30:19;25.23;;;16.00;;
8594;SDS011;4335;48.860;9.198;2022-12-11T14:32:47;22.80;;;14.97;;
8594;SDS011;4335;48.860;9.198;2022-12-11T14:35:17;23.47;;;15.40;;
8594;SDS011;4335;48.860;9.198;2022-12-11T14:37:50;25.03;;;15.27;;
8594;SDS011;4335;48.860;9.198;2022-12-11T14:40:26;22.60;;;16.13;;
8594;SDS011;4335;48.860;9.198;2022-12-11T14:42:57;26.47;;;15.87;;
8594;SDS011;4335;48.860;9.198;2022-12-11T14:45:29;25.90;;;15.83;;
8594;SDS011;4335;48.860;9.198;2022-12-11T14:48:02;25.97;;;15.73;;
8594;SDS011;4335;48.860;9.198;2022-12-11T14:50:33;22.93;;;16.50;;
8594;SDS011;4335;48.860;9.198;2022-12-11T14:53:05;30.77;;;19.07;;
8594;SDS011;4335;48.860;9.198;2022-12-11T14:55:37;52.87;;;30.57;;
8594;SDS011;4335;48.860;9.198;2022-12-11T14:58:07;37.70;;;21.20;;
8594;SDS011;4335;48.860;9.198;2022-12-11T15:00:41;30.70;;;18.47;;
8594;SDS011;4335;48.860;9.198;2022-12-11T15:03:19;26.37;;;16.93;;
8594;SDS011;4335;48.860;9.198;2022-12-11T15:05:47;28.83;;;17.40;;
8594;SDS011;4335;48.860;9.198;2022-12-11T15:08:24;23.43;;;15.53;;
8594;SDS011;4335;48.860;9.198;2022-12-11T15:11:02;24.23;;;15.40;;
8594;SDS011;4335;48.860;9.198;2022-12-11T15:13:32;27.77;;;16.73;;